createdAt,value
2023-02-12T00:01:52.738Z,99963.94
2023-02-12T00:04:20.878Z,99965.59
2023-02-12T00:06:49.810Z,99952.53
2023-02-12T00:09:20.328Z,99952.69
2023-02-12T00:11:50.203Z,99955.13
2023-02-12T00:14:19.076Z,99961.09
2023-02-12T00:16:50.040Z,99967.78
2023-02-12T00:19:20.694Z,99963.50
2023-02-12T00:21:49.580Z,99974.66
2023-02-12T00:24:18.340Z,99957.72
2023-02-12T00:26:48.615Z,99949.94
2023-02-12T00:29:17.075Z,99950.81
2023-02-12T00:31:45.624Z,99952.53
2023-02-12T00:34:14.249Z,99960.03
2023-02-12T00:36:44.168Z,99969.59
2023-02-12T00:39:13.336Z,99960.13
2023-02-12T00:41:43.024Z,99966.28
2023-02-12T00:44:13.127Z,99974.78
2023-02-12T00:46:42.259Z,99954.38
2023-02-12T00:49:11.512Z,99960.41
2023-02-12T00:51:40.336Z,99961.09
2023-02-12T00:54:10.870Z,99948.25
2023-02-12T00:56:39.964Z,99966.28
2023-02-12T00:59:08.569Z,99961.22
2023-02-12T01:01:37.412Z,99968.69
2023-02-12T01:04:06.010Z,99963.75
2023-02-12T01:06:34.926Z,99965.41
2023-02-12T01:09:05.172Z,99968.84
2023-02-12T01:11:35.665Z,99961.94
2023-02-12T01:14:04.386Z,99963.75
2023-02-12T01:16:36.636Z,99936.19
2023-02-12T01:19:06.383Z,99935.53
2023-02-12T01:21:37.283Z,99952.44
2023-02-12T01:24:06.408Z,99959.63
2023-02-12T01:26:36.446Z,99962.13
2023-02-12T01:29:09.208Z,99968.84
2023-02-12T01:31:40.917Z,99958.56
2023-02-12T01:34:14.097Z,99956.00
2023-02-12T01:36:42.491Z,99951.75
2023-02-12T01:39:12.363Z,99964.59
2023-02-12T01:41:46.654Z,99956.13
2023-02-12T01:44:17.932Z,99953.47
2023-02-12T01:46:47.646Z,99951.75
2023-02-12T01:49:21.952Z,99950.03
2023-02-12T01:51:54.948Z,99951.75
2023-02-12T01:54:26.843Z,99948.22
2023-02-12T01:56:58.105Z,99953.47
2023-02-12T01:59:26.996Z,99950.25
2023-02-12T02:01:56.216Z,99956.13
2023-02-12T02:04:28.761Z,99955.22
2023-02-12T02:06:59.901Z,99950.91
2023-02-12T02:09:29.819Z,99962.31
2023-02-12T02:12:17.168Z,99959.69
2023-02-12T02:14:47.060Z,99957.13
2023-02-12T02:17:28.270Z,99951.94
2023-02-12T02:20:18.258Z,99951.44
2023-02-12T02:22:53.146Z,99955.44
2023-02-12T02:25:58.415Z,99955.56
2023-02-12T02:28:53.702Z,99952.88
2023-02-12T02:31:32.034Z,99954.69
2023-02-12T02:34:08.086Z,99944.44
2023-02-12T02:36:58.049Z,99950.41
2023-02-12T02:39:35.728Z,99959.81
2023-02-12T02:42:11.223Z,99969.09
2023-02-12T02:44:48.055Z,99961.47
2023-02-12T02:47:21.627Z,99955.50
2023-02-12T02:49:55.932Z,99965.69
2023-02-12T02:52:27.879Z,99970.81
2023-02-12T02:55:02.328Z,99974.19
2023-02-12T02:57:37.365Z,99964.91
2023-02-12T03:00:13.442Z,99965.75
2023-02-12T03:02:49.376Z,99967.41
2023-02-12T03:05:22.935Z,99964.19
2023-02-12T03:07:55.500Z,99965.75
2023-02-12T03:10:27.301Z,99976.84
2023-02-12T03:12:59.725Z,99972.59
2023-02-12T03:15:34.398Z,99969.81
2023-02-12T03:18:09.171Z,99983.56
2023-02-12T03:20:44.167Z,99981.78
2023-02-12T03:23:18.685Z,99961.13
2023-02-12T03:25:57.224Z,99982.59
2023-02-12T03:28:30.574Z,99981.59
2023-02-12T03:31:08.494Z,99982.41
2023-02-12T03:33:46.635Z,99981.28
2023-02-12T03:36:28.028Z,99992.56
2023-02-12T03:38:59.095Z,99995.06
2023-02-12T03:41:35.300Z,99998.53
2023-02-12T03:44:12.421Z,99995.16
2023-02-12T03:46:45.002Z,100001.84
2023-02-12T03:49:23.208Z,100002.59
2023-02-12T03:51:52.223Z,100000.88
2023-02-12T03:54:22.749Z,100010.97
2023-02-12T03:56:55.894Z,99999.88
2023-02-12T03:59:26.070Z,100005.69
2023-02-12T04:01:56.613Z,100007.34
2023-02-12T04:04:27.883Z,100007.25
2023-02-12T04:06:58.272Z,100009.63
2023-02-12T04:09:29.071Z,100008.19
2023-02-12T04:12:12.225Z,100008.13
2023-02-12T04:14:47.964Z,100007.16
2023-02-12T04:17:24.607Z,100005.13
2023-02-12T04:20:07.249Z,100013.75
2023-02-12T04:22:46.996Z,100011.69
2023-02-12T04:25:29.198Z,100010.09
2023-02-12T04:28:08.475Z,100011.56
2023-02-12T04:30:40.400Z,100013.44
2023-02-12T04:33:12.942Z,100023.47
2023-02-12T04:35:50.081Z,100023.56
2023-02-12T04:38:23.872Z,100020.09
2023-02-12T04:40:53.579Z,100023.41
2023-02-12T04:43:30.407Z,100022.25
2023-02-12T04:45:59.046Z,100020.59
2023-02-12T04:48:27.527Z,100023.31
2023-02-12T04:51:00.413Z,100019.00
2023-02-12T04:53:28.974Z,100027.63
2023-02-12T04:55:57.410Z,100030.44
2023-02-12T04:58:26.248Z,100026.84
2023-02-12T05:00:54.759Z,100025.09
2023-02-12T05:03:23.045Z,100028.44
2023-02-12T05:05:51.320Z,100020.59
2023-02-12T05:08:21.035Z,100030.13
2023-02-12T05:10:49.458Z,100029.78
2023-02-12T05:13:17.662Z,100038.06
2023-02-12T05:15:45.736Z,100032.22
2023-02-12T05:18:14.536Z,100033.69
2023-02-12T05:20:42.557Z,100033.06
2023-02-12T05:23:10.723Z,100021.00
2023-02-12T05:25:40.334Z,100033.13
2023-02-12T05:28:08.443Z,100034.44
2023-02-12T05:30:36.865Z,100032.53
2023-02-12T05:33:05.426Z,100040.34
2023-02-12T05:35:36.151Z,100042.00
2023-02-12T05:38:04.392Z,100024.91
2023-02-12T05:40:32.415Z,100048.09
2023-02-12T05:43:01.782Z,100030.97
2023-02-12T05:45:30.884Z,100040.34
2023-02-12T05:47:59.101Z,100046.19
2023-02-12T05:50:27.407Z,100050.19
2023-02-12T05:52:55.422Z,100049.03
2023-02-12T05:55:23.530Z,100051.50
2023-02-12T05:57:52.494Z,100053.97
2023-02-12T06:00:22.988Z,100056.66
2023-02-12T06:02:51.070Z,100062.53
2023-02-12T06:05:19.524Z,100059.16
2023-02-12T06:07:47.728Z,100064.25
2023-02-12T06:10:15.983Z,100059.31
2023-02-12T06:12:44.130Z,100052.59
2023-02-12T06:15:12.513Z,100063.72
2023-02-12T06:17:42.121Z,100064.63
2023-02-12T06:20:10.407Z,100063.81
2023-02-12T06:22:38.769Z,100063.91
2023-02-12T06:25:07.886Z,100063.13
2023-02-12T06:27:35.912Z,100060.59
2023-02-12T06:30:04.371Z,100062.41
2023-02-12T06:32:32.557Z,100071.16
2023-02-12T06:35:02.063Z,100069.50
2023-02-12T06:37:30.324Z,100068.72
2023-02-12T06:39:59.325Z,100072.09
2023-02-12T06:42:27.490Z,100077.19
2023-02-12T06:44:55.977Z,100083.19
2023-02-12T06:47:24.167Z,100092.69
2023-02-12T06:49:52.272Z,100090.03
2023-02-12T06:52:22.873Z,100100.50
2023-02-12T06:54:51.146Z,100101.47
2023-02-12T06:57:19.239Z,100102.34
2023-02-12T06:59:47.409Z,100101.59
2023-02-12T07:02:16.022Z,100099.06
2023-02-12T07:04:44.376Z,100091.19
2023-02-12T07:07:13.079Z,100097.19
2023-02-12T07:09:43.085Z,100105.41
2023-02-12T07:12:11.577Z,100107.44
2023-02-12T07:14:39.971Z,100119.53
2023-02-12T07:17:09.782Z,100115.31
2023-02-12T07:19:38.879Z,100118.03
2023-02-12T07:22:06.984Z,100118.78
2023-02-12T07:24:35.025Z,100124.00
2023-02-12T07:27:04.672Z,100119.16
2023-02-12T07:29:33.122Z,100128.63
2023-02-12T07:32:02.174Z,100127.44
2023-02-12T07:34:30.382Z,100124.53
2023-02-12T07:36:58.681Z,100123.03
2023-02-12T07:39:26.943Z,100121.38
2023-02-12T07:41:55.600Z,100119.03
2023-02-12T07:44:27.896Z,100128.69
2023-02-12T07:46:56.041Z,100128.72
2023-02-12T07:49:24.696Z,100129.59
2023-02-12T07:51:53.128Z,100121.31
2023-02-12T07:54:24.641Z,100122.63
2023-02-12T07:56:56.192Z,100126.19
2023-02-12T07:59:25.726Z,100125.78
2023-02-12T08:01:54.469Z,100127.28
2023-02-12T08:04:26.162Z,100131.59
2023-02-12T08:06:56.168Z,100144.00
2023-02-12T08:09:27.761Z,100134.88
2023-02-12T08:11:56.034Z,100130.16
2023-02-12T08:14:26.215Z,100140.56
2023-02-12T08:16:54.687Z,100142.16
2023-02-12T08:19:26.541Z,100152.00
2023-02-12T08:21:57.128Z,100141.28
2023-02-12T08:24:25.956Z,100139.84
2023-02-12T08:26:54.028Z,100139.66
2023-02-12T08:29:25.349Z,100117.06
2023-02-12T08:31:59.587Z,100135.88
2023-02-12T08:34:29.907Z,100129.03
2023-02-12T08:36:59.060Z,100123.94
2023-02-12T08:39:29.852Z,100124.28
2023-02-12T08:41:59.573Z,100123.03
2023-02-12T08:44:29.690Z,100124.91
2023-02-12T08:46:59.703Z,100118.72
2023-02-12T08:49:29.559Z,100113.22
2023-02-12T08:51:59.993Z,100122.28
2023-02-12T08:54:30.215Z,100115.84
2023-02-12T08:57:00.805Z,100120.03
2023-02-12T08:59:29.580Z,100119.66
2023-02-12T09:01:59.568Z,100118.38
2023-02-12T09:04:29.690Z,100114.63
2023-02-12T09:06:57.888Z,100118.88
2023-02-12T09:09:26.778Z,100123.28
2023-02-12T09:11:55.084Z,100116.00
2023-02-12T09:14:25.262Z,100123.97
2023-02-12T09:16:55.036Z,100115.06
2023-02-12T09:19:25.122Z,100106.84
2023-02-12T09:21:55.721Z,100126.22
2023-02-12T09:24:25.014Z,100127.63
2023-02-12T09:26:53.342Z,100126.59
2023-02-12T09:29:21.676Z,100120.41
2023-02-12T09:31:50.132Z,100134.88
2023-02-12T09:34:18.424Z,100126.34
2023-02-12T09:36:49.536Z,100123.00
2023-02-12T09:39:18.264Z,100130.34
2023-02-12T09:42:18.936Z,100132.06
2023-02-12T09:44:55.400Z,100129.59
2023-02-12T09:47:32.746Z,100132.25
2023-02-12T09:50:18.830Z,100134.72
2023-02-12T09:52:49.972Z,100125.28
2023-02-12T09:55:20.172Z,100131.66
2023-02-12T09:57:49.003Z,100130.19
2023-02-12T10:00:23.661Z,100129.94
2023-02-12T10:02:54.824Z,100130.31
2023-02-12T10:05:28.261Z,100141.88
2023-02-12T10:08:25.089Z,100132.97
2023-02-12T10:10:55.137Z,100128.31
2023-02-12T10:13:38.775Z,100131.91
2023-02-12T10:16:15.791Z,100128.41
2023-02-12T10:19:06.364Z,100133.53
2023-02-12T10:21:50.493Z,100137.91
2023-02-12T10:24:34.783Z,100137.25
2023-02-12T10:27:07.590Z,100139.00
2023-02-12T10:29:39.231Z,100142.00
2023-02-12T10:32:14.867Z,100139.25
2023-02-12T10:34:44.249Z,100145.50
2023-02-12T10:37:23.201Z,100144.50
2023-02-12T10:39:59.461Z,100139.31
2023-02-12T10:42:37.767Z,100130.16
2023-02-12T10:45:07.379Z,100140.94
2023-02-12T10:47:35.900Z,100129.16
2023-02-12T10:50:21.541Z,100131.25
2023-02-12T10:52:55.067Z,100129.91
2023-02-12T10:55:30.484Z,100122.72
2023-02-12T10:57:59.618Z,100122.72
2023-02-12T11:00:32.130Z,100127.44
2023-02-12T11:03:07.730Z,100125.75
2023-02-12T11:05:37.818Z,100119.53
2023-02-12T11:08:07.014Z,100121.13
2023-02-12T11:10:40.336Z,100125.84
2023-02-12T11:13:24.583Z,100121.47
2023-02-12T11:15:54.292Z,100124.16
2023-02-12T11:18:26.549Z,100130.19
2023-02-12T11:21:00.372Z,100122.03
2023-02-12T11:23:31.176Z,100121.63
2023-02-12T11:26:06.122Z,100124.56
2023-02-12T11:28:37.376Z,100127.34
2023-02-12T11:31:21.800Z,100126.06
2023-02-12T11:34:07.681Z,100128.47
2023-02-12T11:36:39.645Z,100128.06
2023-02-12T11:39:16.291Z,100121.69
2023-02-12T11:41:46.219Z,100131.16
2023-02-12T11:44:22.560Z,100128.38
2023-02-12T11:46:54.115Z,100121.91
2023-02-12T11:49:27.050Z,100130.56
2023-02-12T11:51:56.851Z,100126.44
2023-02-12T11:54:29.090Z,100113.09
2023-02-12T11:56:59.511Z,100124.56
2023-02-12T11:59:36.727Z,100115.28
2023-02-12T12:02:17.969Z,100117.97
2023-02-12T12:04:49.913Z,100108.59
2023-02-12T12:07:24.225Z,100108.75
2023-02-12T12:10:00.682Z,100106.22
2023-02-12T12:12:41.509Z,100113.25
2023-02-12T12:15:36.206Z,100111.94
2023-02-12T12:18:28.002Z,100106.13
2023-02-12T12:21:00.646Z,100104.88
2023-02-12T12:23:37.366Z,100104.00
2023-02-12T12:26:10.872Z,100100.34
2023-02-12T12:28:47.180Z,100102.06
2023-02-12T12:31:19.987Z,100104.16
2023-02-12T12:33:52.175Z,100109.41
2023-02-12T12:36:50.498Z,100105.25
2023-02-12T12:39:30.115Z,100106.69
2023-02-12T12:42:31.862Z,100106.00
2023-02-12T12:45:22.295Z,100100.28
2023-02-12T12:48:02.328Z,100098.59
2023-02-12T12:50:45.988Z,100086.41
2023-02-12T12:53:27.405Z,100094.41
2023-02-12T12:56:11.942Z,100084.00
2023-02-12T12:58:54.649Z,100069.44
2023-02-12T13:01:46.459Z,100076.09
2023-02-12T13:04:55.228Z,100079.00
2023-02-12T13:07:40.033Z,100082.94
2023-02-12T13:10:30.911Z,100072.47
2023-02-12T13:13:24.206Z,100076.31
2023-02-12T13:16:00.538Z,100072.72
2023-02-12T13:18:43.871Z,100080.59
2023-02-12T13:21:21.254Z,100079.47
2023-02-12T13:23:56.328Z,100074.63
2023-02-12T13:26:32.387Z,100080.44
2023-02-12T13:29:06.856Z,100085.44
2023-02-12T13:31:42.775Z,100082.06
2023-02-12T13:34:17.745Z,100087.38
2023-02-12T13:36:48.327Z,100090.38
2023-02-12T13:39:26.660Z,100089.41
2023-02-12T13:42:04.641Z,100087.47
2023-02-12T13:44:42.230Z,100077.03
2023-02-12T13:47:19.840Z,100073.06
2023-02-12T13:49:56.802Z,100085.19
2023-02-12T13:52:32.461Z,100077.34
2023-02-12T13:55:18.669Z,100087.09
2023-02-12T13:58:08.412Z,100089.88
2023-02-12T14:01:08.965Z,100077.22
2023-02-12T14:03:38.754Z,100083.44
2023-02-12T14:06:17.324Z,100072.53
2023-02-12T14:08:48.272Z,100083.59
2023-02-12T14:11:19.461Z,100069.31
2023-02-12T14:13:53.971Z,100073.72
2023-02-12T14:16:40.275Z,100084.84
2023-02-12T14:19:41.702Z,100071.91
2023-02-12T14:22:36.988Z,100075.31
2023-02-12T14:25:32.909Z,100073.19
2023-02-12T14:28:13.672Z,100064.06
2023-02-12T14:30:44.543Z,100059.47
2023-02-12T14:33:26.818Z,100061.03
2023-02-12T14:36:18.339Z,100063.47
2023-02-12T14:39:05.696Z,100054.78
2023-02-12T14:41:38.744Z,100060.63
2023-02-12T14:44:44.858Z,100050.34
2023-02-12T14:47:17.326Z,100046.03
2023-02-12T14:49:48.789Z,100057.06
2023-02-12T14:52:20.161Z,100053.50
2023-02-12T14:54:53.232Z,100045.72
2023-02-12T14:57:28.164Z,100049.25
2023-02-12T15:00:00.517Z,100050.28
2023-02-12T15:02:32.017Z,100054.69
2023-02-12T15:05:04.728Z,100037.56
2023-02-12T15:07:43.318Z,100048.97
2023-02-12T15:10:20.710Z,100048.38
2023-02-12T15:12:55.103Z,100045.28
2023-02-12T15:15:31.156Z,100044.59
2023-02-12T15:18:04.323Z,100042.16
2023-02-12T15:20:36.660Z,100032.59
2023-02-12T15:23:36.431Z,100039.56
2023-02-12T15:26:07.989Z,100036.31
2023-02-12T15:28:38.273Z,100042.56
2023-02-12T15:31:11.089Z,100032.28
2023-02-12T15:33:46.746Z,100024.53
2023-02-12T15:36:21.193Z,100033.91
2023-02-12T15:38:53.752Z,100035.63
2023-02-12T15:41:40.126Z,100031.53
2023-02-12T15:44:22.438Z,100029.78
2023-02-12T15:46:59.116Z,100027.81
2023-02-12T15:49:35.594Z,100031.81
2023-02-12T15:52:08.932Z,100030.88
2023-02-12T15:54:38.557Z,100029.13
2023-02-12T15:57:16.087Z,100036.88
2023-02-12T15:59:46.613Z,100030.91
2023-02-12T16:02:22.460Z,100021.53
2023-02-12T16:04:51.465Z,100024.06
2023-02-12T16:07:21.573Z,100029.19
2023-02-12T16:09:52.249Z,100021.09
2023-02-12T16:12:26.362Z,100012.47
2023-02-12T16:14:56.958Z,100021.75
2023-02-12T16:17:29.817Z,100023.31
2023-02-12T16:19:59.781Z,100021.47
2023-02-12T16:22:35.806Z,100025.56
2023-02-12T16:25:07.521Z,100023.81
2023-02-12T16:27:38.313Z,100020.13
2023-02-12T16:30:11.017Z,100030.44
2023-02-12T16:32:41.741Z,100031.06
2023-02-12T16:35:27.546Z,100031.78
2023-02-12T16:38:01.012Z,100033.28
2023-02-12T16:40:36.185Z,100035.44
2023-02-12T16:43:28.027Z,100036.16
2023-02-12T16:46:07.986Z,100048.78
2023-02-12T16:48:41.553Z,100048.88
2023-02-12T16:51:23.439Z,100040.03
2023-02-12T16:53:55.375Z,100058.75
2023-02-12T16:56:24.284Z,100056.97
2023-02-12T16:58:56.156Z,100054.72
2023-02-12T17:01:27.614Z,100059.16
2023-02-12T17:03:58.551Z,100060.56
2023-02-12T17:06:29.080Z,100057.63
2023-02-12T17:08:57.164Z,100063.81
2023-02-12T17:11:27.059Z,100064.66
2023-02-12T17:13:58.448Z,100060.94
2023-02-12T17:16:31.750Z,100060.91
2023-02-12T17:19:01.423Z,100069.00
2023-02-12T17:21:38.401Z,100068.69
2023-02-12T17:24:10.396Z,100062.69
2023-02-12T17:26:38.646Z,100066.81
2023-02-12T17:29:10.217Z,100071.91
2023-02-12T17:31:40.657Z,100076.88
2023-02-12T17:34:10.241Z,100066.41
2023-02-12T17:36:40.469Z,100066.47
2023-02-12T17:39:10.798Z,100074.72
2023-02-12T17:41:42.683Z,100073.91
2023-02-12T17:44:14.225Z,100071.22
2023-02-12T17:46:43.833Z,100074.69
2023-02-12T17:49:12.524Z,100065.69
2023-02-12T17:51:42.332Z,100081.03
2023-02-12T17:54:10.850Z,100086.00
2023-02-12T17:56:41.126Z,100078.97
2023-02-12T17:59:09.551Z,100082.25
2023-02-12T18:01:41.206Z,100084.56
2023-02-12T18:04:10.138Z,100078.72
2023-02-12T18:06:39.623Z,100086.34
2023-02-12T18:09:07.982Z,100084.66
2023-02-12T18:11:39.160Z,100077.22
2023-02-12T18:14:08.351Z,100095.44
2023-02-12T18:16:38.838Z,100100.09
2023-02-12T18:19:07.463Z,100090.94
2023-02-12T18:21:36.141Z,100102.81
2023-02-12T18:24:05.347Z,100093.50
2023-02-12T18:26:34.072Z,100094.13
2023-02-12T18:29:02.873Z,100097.91
2023-02-12T18:31:33.757Z,100081.00
2023-02-12T18:34:10.281Z,100078.88
2023-02-12T18:36:39.358Z,100089.94
2023-02-12T18:39:08.810Z,100090.00
2023-02-12T18:41:38.275Z,100083.13
2023-02-12T18:44:07.962Z,100086.63
2023-02-12T18:46:37.780Z,100082.50
2023-02-12T18:49:09.992Z,100087.53
2023-02-12T18:51:40.073Z,100064.41
2023-02-12T18:54:12.758Z,100072.91
2023-02-12T18:56:44.950Z,100075.50
2023-02-12T18:59:16.492Z,100080.59
2023-02-12T19:01:46.694Z,100076.25
2023-02-12T19:04:20.754Z,100070.28
2023-02-12T19:06:54.396Z,100070.19
2023-02-12T19:09:26.018Z,100067.63
2023-02-12T19:11:56.819Z,100064.81
2023-02-12T19:14:28.905Z,100074.16
2023-02-12T19:16:59.748Z,100077.41
2023-02-12T19:19:30.366Z,100064.94
2023-02-12T19:22:00.625Z,100067.31
2023-02-12T19:24:44.461Z,100068.09
2023-02-12T19:27:16.315Z,100084.34
2023-02-12T19:29:45.600Z,100072.31
2023-02-12T19:32:14.173Z,100079.22
2023-02-12T19:34:45.709Z,100071.50
2023-02-12T19:37:14.697Z,100079.16
2023-02-12T19:39:43.293Z,100081.59
2023-02-12T19:42:14.784Z,100072.91
2023-02-12T19:44:43.688Z,100086.69
2023-02-12T19:47:12.258Z,100083.19
2023-02-12T19:49:41.574Z,100082.44
2023-02-12T19:52:11.533Z,100087.72
2023-02-12T19:54:40.039Z,100073.06
2023-02-12T19:57:10.650Z,100085.84
2023-02-12T19:59:42.241Z,100088.69
2023-02-12T20:02:12.730Z,100090.28
2023-02-12T20:04:41.154Z,100087.75
2023-02-12T20:07:11.601Z,100083.56
2023-02-12T20:09:40.146Z,100060.25
2023-02-12T20:12:08.586Z,100081.97
2023-02-12T20:14:37.044Z,100089.63
2023-02-12T20:17:06.137Z,100080.28
2023-02-12T20:19:34.565Z,100087.34
2023-02-12T20:22:04.792Z,100090.66
2023-02-12T20:24:35.753Z,100090.75
2023-02-12T20:27:05.528Z,100086.66
2023-02-12T20:29:35.156Z,100084.88
2023-02-12T20:32:03.619Z,100090.16
2023-02-12T20:34:45.755Z,100082.69
2023-02-12T20:37:20.233Z,100081.06
2023-02-12T20:39:49.997Z,100088.25
2023-02-12T20:42:18.236Z,100078.94
2023-02-12T20:44:47.008Z,100092.81
2023-02-12T20:47:16.944Z,100083.47
2023-02-12T20:49:45.793Z,100091.31
2023-02-12T20:52:14.723Z,100085.59
2023-02-12T20:54:43.650Z,100091.53
2023-02-12T20:57:14.798Z,100093.25
2023-02-12T20:59:43.415Z,100100.97
2023-02-12T21:02:12.105Z,100100.16
2023-02-12T21:04:41.707Z,100094.34
2023-02-12T21:07:10.165Z,100096.22
2023-02-12T21:09:38.824Z,100083.28
2023-02-12T21:12:07.365Z,100103.00
2023-02-12T21:14:37.068Z,100099.66
2023-02-12T21:17:05.837Z,100102.13
2023-02-12T21:19:35.342Z,100102.88
2023-02-12T21:22:03.739Z,100090.88
2023-02-12T21:24:32.768Z,100098.75
2023-02-12T21:27:01.094Z,100090.09
2023-02-12T21:29:33.296Z,100096.06
2023-02-12T21:32:04.564Z,100082.22
2023-02-12T21:34:33.452Z,100098.69
2023-02-12T21:37:04.053Z,100091.03
2023-02-12T21:39:32.326Z,100098.72
2023-02-12T21:42:03.189Z,100083.28
2023-02-12T21:44:33.136Z,100096.94
2023-02-12T21:47:03.375Z,100093.31
2023-02-12T21:49:32.000Z,100098.47
2023-02-12T21:52:02.549Z,100096.66
2023-02-12T21:54:33.244Z,100088.13
2023-02-12T21:57:02.625Z,100090.75
2023-02-12T21:59:32.548Z,100089.16
2023-02-12T22:02:03.685Z,100087.31
2023-02-12T22:04:32.304Z,100084.66
2023-02-12T22:07:03.485Z,100086.31
2023-02-12T22:09:32.635Z,100090.63
2023-02-12T22:12:00.883Z,100089.28
2023-02-12T22:14:29.517Z,100082.53
2023-02-12T22:16:58.865Z,100092.50
2023-02-12T22:19:29.381Z,100085.53
2023-02-12T22:21:58.085Z,100088.06
2023-02-12T22:24:26.391Z,100083.88
2023-02-12T22:26:57.510Z,100079.56
2023-02-12T22:29:25.991Z,100079.72
2023-02-12T22:31:54.335Z,100069.31
2023-02-12T22:34:23.257Z,100076.97
2023-02-12T22:36:55.649Z,100081.84
2023-02-12T22:39:25.085Z,100078.28
2023-02-12T22:41:54.562Z,100074.41
2023-02-12T22:44:23.823Z,100077.50
2023-02-12T22:46:52.135Z,100086.59
2023-02-12T22:49:23.018Z,100084.78
2023-02-12T22:51:51.925Z,100083.16
2023-02-12T22:54:22.309Z,100092.47
2023-02-12T22:56:52.935Z,100092.31
2023-02-12T22:59:21.223Z,100085.44
2023-02-12T23:01:50.010Z,100082.63
2023-02-12T23:04:19.708Z,100089.34
2023-02-12T23:06:48.114Z,100090.78
2023-02-12T23:09:19.256Z,100078.91
2023-02-12T23:11:51.842Z,100078.94
2023-02-12T23:14:20.555Z,100081.75
2023-02-12T23:16:49.961Z,100078.22
2023-02-12T23:19:18.383Z,100075.56
2023-02-12T23:21:46.718Z,100079.59
2023-02-12T23:24:16.310Z,100081.03
2023-02-12T23:26:44.664Z,100084.16
2023-02-12T23:29:15.286Z,100093.03
2023-02-12T23:31:43.549Z,100090.84
2023-02-12T23:34:11.766Z,100084.31
2023-02-12T23:36:40.237Z,100088.28
2023-02-12T23:39:09.627Z,100097.34
2023-02-12T23:41:37.786Z,100077.59
2023-02-12T23:44:06.341Z,100080.50
2023-02-12T23:46:35.827Z,100061.59
2023-02-12T23:49:04.238Z,100084.50
2023-02-12T23:51:33.260Z,100070.28
2023-02-12T23:54:03.532Z,100063.16
2023-02-12T23:56:32.396Z,100057.66
2023-02-12T23:59:00.515Z,100062.31
